This is the latest recevied weather packets stored in our database for station/object OE-11372. If no packets are shown the sender has not sent any weather packets the latest 10 day(s).
| Time | Temp. | Humidity | Pressure | Rain* | Wind** | Luminosity | Snow |
|---|---|---|---|---|---|---|---|
| 1787938503 | 23.89° C | 59% | 850.6 hPa | 0 mm | - | 25 W/m² | - |
| 1787937903 | 23.89° C | 59% | 850.9 hPa | 0 mm | - | 25 W/m² | - |
| 1787937076 | 24.44° C | 57% | 851.1 hPa | 0 mm | - | 8 W/m² | - |
| 1787936702 | 25° C | 53% | 850.9 hPa | 0 mm | - | 16 W/m² | - |
| 1787936102 | 25.56° C | 49% | 850.7 hPa | 0 mm | - | 25 W/m² | - |
| 1787935276 | 26.67° C | 45% | 850.7 hPa | 0 mm | - | 41 W/m² | - |
| 1787934903 | 28.33° C | 36% | 850.4 hPa | 0 mm | - | 66 W/m² | - |
| 1787934303 | 28.33° C | 36% | 850.7 hPa | 0 mm | - | 66 W/m² | - |
| 1787933476 | 28.33° C | 36% | 850.6 hPa | 0 mm | - | 99 W/m² | - |
| 1787933103 | 28.89° C | 36% | 850.8 hPa | 0 mm | - | 115 W/m² | - |
| 1787932503 | 28.89° C | 38% | 850.5 hPa | 0 mm | - | 124 W/m² | - |
| 1787931676 | 28.89° C | 38% | 850.8 hPa | 0 mm | - | 173 W/m² | - |
| 1787931303 | 29.44° C | 35% | 851 hPa | 0 mm | - | 231 W/m² | - |
| 1787930703 | 29.44° C | 33% | 851.1 hPa | 0 mm | - | 231 W/m² | - |
| 1787929876 | 30.56° C | 33% | 851.2 hPa | 0 mm | - | 428 W/m² | - |
| 1787929502 | 30.56° C | 32% | 851.3 hPa | 0 mm | - | 346 W/m² | - |
| 1787928902 | 31.11° C | 32% | 851.4 hPa | 0 mm | - | 486 W/m² | - |
| 1787928076 | 30.56° C | 34% | 851.5 hPa | 0 mm | - | 527 W/m² | - |
| 1787927702 | 30° C | 34% | 851.4 hPa | 0 mm | - | 387 W/m² | - |
| 1787927102 | 29.44° C | 33% | 851.7 hPa | 0 mm | - | 387 W/m² | - |
| 1787926276 | 29.44° C | 34% | 851.8 hPa | 0 mm | - | 387 W/m² | - |
| 1787925903 | 29.44° C | 37% | 851.8 hPa | 0 mm | - | 329 W/m² | - |
| 1787925303 | 28.89° C | 35% | 851.9 hPa | 0 mm | - | 189 W/m² | - |
| 1787924476 | 29.44° C | 34% | 852.1 hPa | 0 mm | - | 346 W/m² | - |
| 1787924103 | 29.44° C | 33% | 852 hPa | 0 mm | - | 272 W/m² | - |
* Rain latest hour (hover to see other rain measurements)
** Current wind speed in m/s (hover to see current wind gust speed)